createdAt,value
2022-11-25T00:01:47.763Z,91.92
2022-11-25T00:04:11.486Z,90.89
2022-11-25T00:06:36.937Z,91.10
2022-11-25T00:09:02.245Z,90.49
2022-11-25T00:11:25.906Z,89.92
2022-11-25T00:13:50.410Z,89.90
2022-11-25T00:16:16.466Z,89.95
2022-11-25T00:18:41.931Z,90.08
2022-11-25T00:21:08.725Z,89.02
2022-11-25T00:23:33.482Z,88.76
2022-11-25T00:25:57.132Z,88.67
2022-11-25T00:28:20.771Z,88.79
2022-11-25T00:30:46.368Z,88.13
2022-11-25T00:33:10.105Z,88.78
2022-11-25T00:35:36.374Z,89.06
2022-11-25T00:37:59.961Z,89.20
2022-11-25T00:40:23.504Z,88.48
2022-11-25T00:43:04.486Z,88.74
2022-11-25T00:45:28.094Z,87.80
2022-11-25T00:47:51.647Z,90.05
2022-11-25T00:50:15.540Z,89.64
2022-11-25T00:52:40.463Z,88.79
2022-11-25T00:55:05.216Z,88.14
2022-11-25T00:57:28.753Z,88.29
2022-11-25T00:59:52.791Z,87.92
2022-11-25T01:02:19.881Z,88.68
2022-11-25T01:04:43.519Z,88.52
2022-11-25T01:07:07.870Z,89.06
2022-11-25T01:09:33.393Z,88.40
2022-11-25T01:11:56.964Z,88.58
2022-11-25T01:14:21.114Z,88.53
2022-11-25T01:16:44.824Z,88.66
2022-11-25T01:19:08.727Z,88.73
2022-11-25T01:21:34.806Z,89.63
2022-11-25T01:24:00.595Z,89.63
2022-11-25T01:26:26.748Z,88.15
2022-11-25T01:28:54.881Z,88.27
2022-11-25T01:31:21.510Z,87.45
2022-11-25T01:33:47.020Z,87.65
2022-11-25T01:36:15.625Z,87.47
2022-11-25T01:38:40.331Z,87.35
2022-11-25T01:41:05.473Z,87.06
2022-11-25T01:43:31.576Z,86.61
2022-11-25T01:45:56.334Z,87.23
2022-11-25T01:48:26.497Z,86.85
2022-11-25T01:50:51.161Z,86.74
2022-11-25T01:53:18.061Z,86.99
2022-11-25T01:55:46.712Z,86.28
2022-11-25T01:58:13.767Z,86.15
2022-11-25T02:00:40.000Z,86.45
2022-11-25T02:03:04.356Z,86.66
2022-11-25T02:05:37.837Z,88.58
2022-11-25T02:08:02.016Z,89.54
2022-11-25T02:10:31.265Z,88.45
2022-11-25T02:12:55.332Z,87.80
2022-11-25T02:15:19.234Z,89.70
2022-11-25T02:17:44.412Z,88.52
2022-11-25T02:20:11.181Z,88.19
2022-11-25T02:22:50.983Z,88.16
2022-11-25T02:25:19.242Z,88.69
2022-11-25T02:27:44.536Z,88.90
2022-11-25T02:30:09.945Z,89.51
2022-11-25T02:32:33.521Z,89.59
2022-11-25T02:34:57.326Z,90.80
2022-11-25T02:37:23.346Z,90.57
2022-11-25T02:39:49.395Z,88.81
2022-11-25T02:42:14.632Z,89.09
2022-11-25T02:44:38.373Z,89.12
2022-11-25T02:47:01.952Z,90.35
2022-11-25T02:49:25.685Z,90.22
2022-11-25T02:51:50.062Z,92.12
2022-11-25T02:54:16.084Z,90.89
2022-11-25T02:56:40.612Z,89.81
2022-11-25T02:59:07.228Z,89.17
2022-11-25T03:01:32.853Z,91.76
2022-11-25T03:03:56.555Z,92.55
2022-11-25T03:06:20.398Z,92.95
2022-11-25T03:08:45.240Z,93.73
2022-11-25T03:11:09.956Z,93.59
2022-11-25T03:13:35.190Z,92.42
2022-11-25T03:16:01.586Z,94.79
2022-11-25T03:18:25.484Z,94.60
2022-11-25T03:20:49.057Z,92.91
2022-11-25T03:23:12.990Z,92.27
2022-11-25T03:25:37.591Z,94.83
2022-11-25T03:28:01.274Z,93.47
2022-11-25T03:30:28.353Z,93.37
2022-11-25T03:32:56.458Z,92.92
2022-11-25T03:35:23.403Z,92.83
2022-11-25T03:37:47.399Z,91.82
2022-11-25T03:40:13.744Z,92.16
2022-11-25T03:42:37.446Z,91.54
2022-11-25T03:45:02.312Z,91.91
2022-11-25T03:47:26.042Z,90.83
2022-11-25T03:49:51.029Z,91.83
2022-11-25T03:52:14.889Z,91.97
2022-11-25T03:54:39.136Z,92.59
2022-11-25T03:57:23.123Z,91.81
2022-11-25T03:59:46.775Z,90.53
2022-11-25T04:02:11.119Z,92.08
2022-11-25T04:04:35.126Z,91.15
2022-11-25T04:07:00.359Z,91.70
2022-11-25T04:09:25.667Z,90.88
2022-11-25T04:12:08.050Z,90.96
2022-11-25T04:14:42.185Z,90.22
2022-11-25T04:17:06.547Z,90.70
2022-11-25T04:19:32.782Z,93.11
2022-11-25T04:21:59.577Z,92.78
2022-11-25T04:24:27.412Z,92.78
2022-11-25T04:26:51.386Z,91.63
2022-11-25T04:29:15.074Z,91.86
2022-11-25T04:31:39.501Z,92.66
2022-11-25T04:34:03.055Z,92.39
2022-11-25T04:36:26.956Z,91.37
2022-11-25T04:38:52.136Z,91.33
2022-11-25T04:41:19.940Z,92.76
2022-11-25T04:43:44.921Z,92.67
2022-11-25T04:46:14.952Z,92.09
2022-11-25T04:48:41.949Z,90.88
2022-11-25T04:51:06.192Z,92.07
2022-11-25T04:53:30.080Z,92.53
2022-11-25T04:55:53.622Z,92.57
2022-11-25T04:58:38.877Z,91.20
2022-11-25T05:01:02.151Z,90.64
2022-11-25T05:03:26.257Z,90.10
2022-11-25T05:05:49.858Z,91.42
2022-11-25T05:08:14.360Z,90.83
2022-11-25T05:10:38.289Z,89.98
2022-11-25T05:13:01.777Z,89.84
2022-11-25T05:15:28.356Z,90.62
2022-11-25T05:17:52.663Z,91.07
2022-11-25T05:20:28.982Z,90.86
2022-11-25T05:22:52.647Z,91.22
2022-11-25T05:25:21.924Z,90.52
2022-11-25T05:28:00.568Z,92.95
2022-11-25T05:30:24.740Z,93.74
2022-11-25T05:32:49.683Z,92.02
2022-11-25T05:35:14.508Z,91.53
2022-11-25T05:37:38.089Z,91.39
2022-11-25T05:40:02.807Z,90.35
2022-11-25T05:42:46.549Z,92.43
2022-11-25T05:45:11.503Z,92.76
2022-11-25T05:47:36.460Z,92.08
2022-11-25T05:50:02.685Z,91.56
2022-11-25T05:52:27.244Z,91.61
2022-11-25T05:54:57.480Z,91.34
2022-11-25T05:57:21.645Z,91.43
2022-11-25T05:59:51.789Z,91.06
2022-11-25T06:02:38.313Z,91.42
2022-11-25T06:05:04.634Z,90.53
2022-11-25T06:07:28.267Z,90.38
2022-11-25T06:09:52.108Z,91.77
2022-11-25T06:12:15.637Z,91.58
2022-11-25T06:14:44.911Z,90.19
2022-11-25T06:17:08.495Z,90.56
2022-11-25T06:19:40.648Z,90.26
2022-11-25T06:22:06.025Z,89.11
2022-11-25T06:24:30.292Z,89.57
2022-11-25T06:26:58.574Z,89.41
2022-11-25T06:29:22.113Z,88.04
2022-11-25T06:31:47.321Z,87.74
2022-11-25T06:34:41.992Z,86.85
2022-11-25T06:37:14.381Z,86.59
2022-11-25T06:39:37.991Z,86.82
2022-11-25T06:42:01.516Z,85.93
2022-11-25T06:44:25.090Z,86.37
2022-11-25T06:46:48.634Z,85.45
2022-11-25T06:49:12.228Z,86.02
2022-11-25T06:51:35.747Z,86.37
2022-11-25T06:54:00.713Z,86.02
2022-11-25T06:56:26.763Z,86.58
2022-11-25T06:58:51.368Z,86.17
2022-11-25T07:01:18.041Z,86.21
2022-11-25T07:03:42.123Z,86.52
2022-11-25T07:06:06.269Z,86.40
2022-11-25T07:08:33.907Z,86.53
2022-11-25T07:11:05.124Z,86.26
2022-11-25T07:13:28.719Z,86.84
2022-11-25T07:15:52.672Z,87.16
2022-11-25T07:18:16.274Z,86.98
2022-11-25T07:20:39.861Z,86.89
2022-11-25T07:23:03.496Z,86.43
2022-11-25T07:25:30.689Z,88.88
2022-11-25T07:27:55.955Z,88.58
2022-11-25T07:31:21.056Z,88.75
2022-11-25T07:33:03.578Z,89.69
2022-11-25T07:35:27.168Z,90.57
2022-11-25T07:37:50.838Z,89.99
2022-11-25T07:40:15.145Z,89.33
2022-11-25T07:42:38.733Z,91.12
2022-11-25T07:45:08.722Z,91.83
2022-11-25T07:47:41.667Z,90.57
2022-11-25T07:50:06.405Z,91.07
2022-11-25T07:52:29.911Z,91.72
2022-11-25T07:54:54.887Z,91.35
2022-11-25T07:57:18.369Z,91.18
2022-11-25T07:59:41.995Z,91.57
2022-11-25T08:02:07.125Z,92.49
2022-11-25T08:04:30.723Z,93.45
2022-11-25T08:06:55.022Z,93.52
2022-11-25T08:09:21.905Z,93.91
2022-11-25T08:11:45.514Z,93.32
2022-11-25T08:14:10.338Z,94.65
2022-11-25T08:16:34.449Z,94.22
2022-11-25T08:19:00.945Z,94.43
2022-11-25T08:21:25.188Z,95.15
2022-11-25T08:23:49.669Z,95.49
2022-11-25T08:26:16.443Z,95.70
2022-11-25T08:28:42.569Z,95.37
2022-11-25T08:31:08.537Z,95.78
2022-11-25T08:33:32.325Z,95.61
2022-11-25T08:35:57.459Z,95.79
2022-11-25T08:38:21.085Z,96.03
2022-11-25T08:40:46.837Z,96.03
2022-11-25T08:43:10.420Z,95.59
2022-11-25T08:45:35.058Z,95.46
2022-11-25T08:47:59.286Z,95.20
2022-11-25T08:50:24.565Z,94.73
2022-11-25T08:52:49.547Z,94.07
2022-11-25T08:55:13.287Z,94.92
2022-11-25T08:57:36.876Z,94.82
2022-11-25T09:00:00.402Z,95.18
2022-11-25T09:02:24.962Z,94.15
2022-11-25T09:04:48.559Z,94.73
2022-11-25T09:07:12.406Z,94.68
2022-11-25T09:09:37.622Z,94.10
2022-11-25T09:12:01.570Z,94.45
2022-11-25T09:14:25.226Z,93.39
2022-11-25T09:16:49.540Z,94.47
2022-11-25T09:19:13.081Z,94.12
2022-11-25T09:21:36.710Z,94.24
2022-11-25T09:24:01.019Z,94.16
2022-11-25T09:26:29.377Z,92.73
2022-11-25T09:28:53.100Z,90.89
2022-11-25T09:31:16.845Z,89.75
2022-11-25T09:33:40.457Z,88.91
2022-11-25T09:36:06.543Z,87.45
2022-11-25T09:38:31.022Z,87.19
2022-11-25T09:41:03.420Z,85.92
2022-11-25T09:43:59.247Z,87.08
2022-11-25T09:46:46.060Z,87.60
2022-11-25T09:49:25.036Z,87.84
2022-11-25T09:52:03.228Z,87.49
2022-11-25T09:54:31.855Z,88.05
2022-11-25T09:57:04.439Z,88.39
2022-11-25T09:59:36.653Z,87.79
2022-11-25T10:02:04.374Z,89.00
2022-11-25T10:04:33.520Z,88.82
2022-11-25T10:07:01.595Z,88.03
2022-11-25T10:09:28.229Z,88.67
2022-11-25T10:11:55.190Z,88.82
2022-11-25T10:14:32.455Z,89.01
2022-11-25T10:17:03.132Z,88.83
2022-11-25T10:19:44.891Z,89.51
2022-11-25T10:22:24.195Z,90.17
2022-11-25T10:24:48.032Z,89.51
2022-11-25T10:27:20.368Z,90.77
2022-11-25T10:29:53.744Z,90.06
2022-11-25T10:32:25.736Z,89.80
2022-11-25T10:34:53.716Z,88.91
2022-11-25T10:37:27.130Z,90.59
2022-11-25T10:39:50.731Z,90.72
2022-11-25T10:42:21.311Z,89.31
2022-11-25T10:44:46.251Z,90.34
2022-11-25T10:47:26.631Z,90.33
2022-11-25T10:50:13.186Z,89.19
2022-11-25T10:52:42.747Z,88.71
2022-11-25T10:55:15.619Z,89.59
2022-11-25T10:57:39.242Z,89.18
2022-11-25T11:00:09.574Z,88.30
2022-11-25T11:02:41.432Z,87.87
2022-11-25T11:05:20.623Z,87.63
2022-11-25T11:07:47.038Z,88.82
2022-11-25T11:10:23.402Z,88.54
2022-11-25T11:12:58.899Z,87.90
2022-11-25T11:15:26.423Z,87.92
2022-11-25T11:17:50.637Z,88.00
2022-11-25T11:20:24.384Z,87.15
2022-11-25T11:22:54.922Z,87.16
2022-11-25T11:25:32.675Z,86.36
2022-11-25T11:27:56.828Z,86.10
2022-11-25T11:30:25.079Z,86.46
2022-11-25T11:33:00.895Z,86.56
2022-11-25T11:35:40.372Z,87.02
2022-11-25T11:38:19.532Z,86.13
2022-11-25T11:40:50.451Z,85.58
2022-11-25T11:43:38.993Z,86.20
2022-11-25T11:46:28.027Z,86.43
2022-11-25T11:49:01.958Z,85.99
2022-11-25T11:51:35.759Z,85.92
2022-11-25T11:54:08.485Z,86.09
2022-11-25T11:56:39.833Z,85.67
2022-11-25T11:59:27.706Z,85.34
2022-11-25T12:02:08.180Z,85.37
2022-11-25T12:04:39.124Z,84.56
2022-11-25T12:07:10.507Z,85.35
2022-11-25T12:09:40.523Z,85.58
2022-11-25T12:12:08.319Z,84.98
2022-11-25T12:14:39.964Z,84.40
2022-11-25T12:17:16.069Z,84.75
2022-11-25T12:19:47.245Z,84.20
2022-11-25T12:22:20.822Z,84.62
2022-11-25T12:24:52.015Z,84.74
2022-11-25T12:27:20.356Z,85.31
2022-11-25T12:29:50.179Z,84.90
2022-11-25T12:32:48.063Z,84.50
2022-11-25T12:35:23.899Z,84.29
2022-11-25T12:37:57.932Z,84.46
2022-11-25T12:40:30.524Z,84.73
2022-11-25T12:42:57.734Z,84.65
2022-11-25T12:45:26.021Z,84.81
2022-11-25T12:47:51.513Z,84.69
2022-11-25T12:50:18.819Z,85.39
2022-11-25T12:52:53.115Z,84.47
2022-11-25T12:55:19.740Z,84.72
2022-11-25T12:58:10.291Z,85.62
2022-11-25T13:01:08.922Z,85.61
2022-11-25T13:04:24.814Z,86.00
2022-11-25T13:07:27.560Z,85.92
2022-11-25T13:10:41.492Z,86.67
2022-11-25T13:13:38.950Z,86.45
2022-11-25T13:16:05.685Z,85.67
2022-11-25T13:18:33.384Z,85.97
2022-11-25T13:21:07.091Z,86.32
2022-11-25T13:23:49.459Z,86.66
2022-11-25T13:26:51.481Z,86.29
2022-11-25T13:30:04.242Z,86.32
2022-11-25T13:32:42.162Z,85.51
2022-11-25T13:35:37.841Z,85.32
2022-11-25T13:38:03.094Z,85.96
2022-11-25T13:40:38.418Z,87.29
2022-11-25T13:43:02.142Z,86.84
2022-11-25T13:45:30.936Z,87.18
2022-11-25T13:47:55.916Z,87.54
2022-11-25T13:50:36.749Z,87.56
2022-11-25T13:53:23.019Z,87.33
2022-11-25T13:55:50.165Z,87.66
2022-11-25T13:58:24.533Z,87.51
2022-11-25T14:01:27.991Z,88.28
2022-11-25T14:04:01.138Z,88.66
2022-11-25T14:07:07.179Z,89.38
2022-11-25T14:10:01.505Z,89.61
2022-11-25T14:12:44.960Z,88.33
2022-11-25T14:15:41.595Z,90.61
2022-11-25T14:21:54.849Z,90.38
2022-11-25T14:24:31.102Z,90.23
2022-11-25T14:26:59.003Z,89.95
2022-11-25T14:29:28.214Z,89.86
2022-11-25T14:31:57.199Z,89.53
2022-11-25T14:34:28.439Z,88.68
2022-11-25T14:36:56.464Z,88.80
2022-11-25T14:39:26.058Z,89.64
2022-11-25T14:42:00.154Z,89.14
2022-11-25T14:44:28.109Z,88.56
2022-11-25T14:46:55.921Z,89.17
2022-11-25T14:49:44.147Z,88.97
2022-11-25T14:52:03.085Z,89.97
2022-11-25T14:54:26.640Z,90.09
2022-11-25T14:56:50.488Z,89.83
2022-11-25T14:59:15.639Z,90.58
2022-11-25T15:01:41.385Z,89.70
2022-11-25T15:04:08.306Z,91.05
2022-11-25T15:06:36.674Z,90.64
2022-11-25T15:09:00.777Z,89.79
2022-11-25T15:11:28.421Z,88.84
2022-11-25T15:13:57.172Z,88.74
2022-11-25T15:16:26.774Z,88.56
2022-11-25T15:18:54.272Z,88.54
2022-11-25T15:21:22.425Z,88.55
2022-11-25T15:23:45.998Z,88.86
2022-11-25T15:26:19.766Z,89.79
2022-11-25T15:28:43.384Z,88.87
2022-11-25T15:31:12.744Z,90.30
2022-11-25T15:33:38.461Z,89.98
2022-11-25T15:36:02.067Z,91.17
2022-11-25T15:38:44.093Z,91.49
2022-11-25T15:41:17.067Z,89.61
2022-11-25T15:43:46.351Z,89.62
2022-11-25T15:46:10.392Z,90.70
2022-11-25T15:48:41.284Z,91.50
2022-11-25T15:51:12.101Z,91.23
2022-11-25T15:53:39.307Z,91.64
2022-11-25T15:56:03.499Z,91.93
2022-11-25T15:58:27.676Z,92.40
2022-11-25T16:01:07.059Z,91.83
2022-11-25T16:03:32.679Z,91.96
2022-11-25T16:05:58.236Z,91.15
2022-11-25T16:08:36.186Z,92.06
2022-11-25T16:11:11.125Z,91.04
2022-11-25T16:13:37.153Z,90.44
2022-11-25T16:16:16.543Z,90.44
2022-11-25T16:18:44.453Z,91.18
2022-11-25T16:21:13.031Z,90.47
2022-11-25T16:23:39.852Z,90.78
2022-11-25T16:26:06.772Z,90.63
2022-11-25T16:28:30.897Z,93.58
2022-11-25T16:30:59.252Z,92.47
2022-11-25T16:33:23.030Z,91.14
2022-11-25T16:35:46.571Z,90.36
2022-11-25T16:38:12.392Z,89.86
2022-11-25T16:40:38.428Z,90.10
2022-11-25T16:43:02.524Z,90.48
2022-11-25T16:45:28.851Z,90.42
2022-11-25T16:47:52.626Z,90.06
2022-11-25T16:50:17.252Z,88.79
2022-11-25T16:52:40.941Z,89.42
2022-11-25T16:55:07.331Z,88.88
2022-11-25T16:57:30.915Z,88.78
2022-11-25T16:59:58.734Z,87.87
2022-11-25T17:02:23.461Z,88.73
2022-11-25T17:04:48.016Z,88.38
2022-11-25T17:07:32.119Z,87.89
2022-11-25T17:09:56.713Z,88.35
2022-11-25T17:12:29.183Z,89.27
2022-11-25T17:17:24.942Z,88.07
2022-11-25T17:19:48.660Z,88.32
2022-11-25T17:24:43.639Z,88.21
2022-11-25T17:27:07.465Z,87.81
2022-11-25T17:29:38.257Z,87.90
2022-11-25T17:32:02.554Z,88.07
2022-11-25T17:34:26.093Z,88.91
2022-11-25T17:36:50.011Z,88.09
2022-11-25T17:39:14.616Z,88.15
2022-11-25T17:41:43.724Z,88.67
2022-11-25T17:44:07.341Z,87.98
2022-11-25T17:46:32.259Z,88.05
2022-11-25T17:48:55.776Z,88.45
2022-11-25T17:51:19.306Z,87.70
2022-11-25T17:53:43.177Z,88.04
2022-11-25T17:56:28.712Z,88.29
2022-11-25T17:58:53.551Z,87.83
2022-11-25T18:01:17.124Z,87.93
2022-11-25T18:03:42.208Z,87.79
2022-11-25T18:06:06.652Z,87.79
2022-11-25T18:08:30.456Z,87.65
2022-11-25T18:10:54.038Z,88.58
2022-11-25T18:13:17.989Z,88.28
2022-11-25T18:15:41.933Z,88.29
2022-11-25T18:18:21.247Z,88.44
2022-11-25T18:20:46.191Z,87.70
2022-11-25T18:23:10.885Z,87.83
2022-11-25T18:25:35.796Z,87.93
2022-11-25T18:28:00.158Z,88.40
2022-11-25T18:30:27.959Z,89.67
2022-11-25T18:32:51.644Z,89.14
2022-11-25T18:35:21.794Z,89.39
2022-11-25T18:37:47.106Z,89.37
2022-11-25T18:40:11.965Z,88.86
2022-11-25T18:42:35.608Z,88.51
2022-11-25T18:44:59.504Z,89.64
2022-11-25T18:47:23.230Z,89.53
2022-11-25T18:49:50.988Z,90.08
2022-11-25T18:52:17.642Z,89.54
2022-11-25T18:54:42.529Z,90.75
2022-11-25T18:57:06.976Z,91.27
2022-11-25T18:59:35.635Z,91.04
2022-11-25T19:01:59.304Z,90.88
2022-11-25T19:04:22.987Z,90.96
2022-11-25T19:06:46.620Z,90.01
2022-11-25T19:09:10.145Z,89.00
2022-11-25T19:11:39.720Z,89.17
2022-11-25T19:14:06.161Z,90.51
2022-11-25T19:16:30.182Z,89.73
2022-11-25T19:18:54.270Z,90.20
2022-11-25T19:21:19.910Z,89.35
2022-11-25T19:23:43.780Z,89.34
2022-11-25T19:26:15.925Z,89.89
2022-11-25T19:28:41.267Z,89.99
2022-11-25T19:31:05.596Z,89.72
2022-11-25T19:33:34.624Z,89.49
2022-11-25T19:35:58.500Z,90.16
2022-11-25T19:38:26.011Z,90.96
2022-11-25T19:40:50.206Z,89.35
2022-11-25T19:43:14.169Z,89.41
2022-11-25T19:45:39.551Z,89.87
2022-11-25T19:48:09.072Z,90.15
2022-11-25T19:50:35.347Z,89.08
2022-11-25T19:52:58.931Z,90.09
2022-11-25T19:55:24.814Z,90.30
2022-11-25T19:57:49.129Z,90.18
2022-11-25T20:00:15.549Z,90.15
2022-11-25T20:02:40.909Z,89.67
2022-11-25T20:05:07.940Z,90.26
2022-11-25T20:07:32.215Z,90.97
2022-11-25T20:09:56.848Z,90.75
2022-11-25T20:12:24.662Z,90.25
2022-11-25T20:14:49.084Z,89.80
2022-11-25T20:17:19.069Z,90.81
2022-11-25T20:19:43.995Z,90.03
2022-11-25T20:22:07.720Z,92.61
2022-11-25T20:24:31.878Z,91.20
2022-11-25T20:26:55.467Z,91.78
2022-11-25T20:29:24.694Z,91.24
2022-11-25T20:31:52.662Z,90.52
2022-11-25T20:34:16.584Z,90.11
2022-11-25T20:36:44.352Z,89.80
2022-11-25T20:39:08.315Z,91.04
2022-11-25T20:41:33.264Z,90.87
2022-11-25T20:43:58.132Z,91.08
2022-11-25T20:46:24.004Z,90.78
2022-11-25T20:48:47.951Z,90.54
2022-11-25T20:51:20.505Z,89.77
2022-11-25T20:53:49.066Z,89.57
2022-11-25T20:56:17.804Z,90.21
2022-11-25T20:58:41.527Z,90.17
2022-11-25T21:01:05.130Z,89.52
2022-11-25T21:03:28.998Z,90.22
2022-11-25T21:05:53.537Z,90.90
2022-11-25T21:08:23.094Z,90.41
2022-11-25T21:10:48.510Z,90.67
2022-11-25T21:13:19.707Z,91.68
2022-11-25T21:15:43.599Z,90.98
2022-11-25T21:18:07.293Z,90.55
2022-11-25T21:20:30.948Z,90.07
2022-11-25T21:22:58.475Z,90.39
2022-11-25T21:25:24.002Z,89.58
2022-11-25T21:27:51.091Z,90.20
2022-11-25T21:30:20.580Z,91.42
2022-11-25T21:32:44.218Z,91.25
2022-11-25T21:35:10.355Z,90.74
2022-11-25T21:37:36.809Z,92.40
2022-11-25T21:40:00.726Z,91.47
2022-11-25T21:42:24.335Z,91.51
2022-11-25T21:44:51.075Z,91.33
2022-11-25T21:47:15.964Z,91.30
2022-11-25T21:49:39.573Z,92.47
2022-11-25T21:52:03.808Z,93.49
2022-11-25T21:54:27.328Z,92.09
2022-11-25T21:56:52.210Z,92.12
2022-11-25T21:59:20.252Z,91.42
2022-11-25T22:01:46.066Z,91.93
2022-11-25T22:04:15.054Z,91.87
2022-11-25T22:06:38.567Z,91.75
2022-11-25T22:09:02.116Z,91.41
2022-11-25T22:11:32.842Z,91.84
2022-11-25T22:13:56.585Z,92.37
2022-11-25T22:16:27.677Z,91.84
2022-11-25T22:18:52.763Z,91.80
2022-11-25T22:21:16.771Z,93.26
2022-11-25T22:23:40.547Z,92.60
2022-11-25T22:26:05.929Z,92.94
2022-11-25T22:28:31.310Z,92.97
2022-11-25T22:30:57.571Z,93.20
2022-11-25T22:33:31.384Z,93.32
2022-11-25T22:35:56.345Z,93.71
2022-11-25T22:38:20.377Z,93.57
2022-11-25T22:40:46.511Z,95.35
2022-11-25T22:43:15.649Z,94.12
2022-11-25T22:45:40.025Z,94.92
2022-11-25T22:48:07.898Z,94.71
2022-11-25T22:50:33.901Z,95.25
2022-11-25T22:53:00.140Z,95.60
2022-11-25T22:55:26.690Z,95.11
2022-11-25T22:57:52.488Z,94.61
2022-11-25T23:00:21.801Z,94.05
2022-11-25T23:02:45.606Z,94.29
2022-11-25T23:05:17.593Z,93.81
2022-11-25T23:07:41.227Z,93.71
2022-11-25T23:10:15.228Z,96.45
2022-11-25T23:12:38.839Z,95.60
2022-11-25T23:15:02.337Z,96.62
2022-11-25T23:17:27.142Z,97.72
2022-11-25T23:19:52.078Z,97.34
2022-11-25T23:22:15.698Z,97.44
2022-11-25T23:24:41.221Z,96.61
2022-11-25T23:27:06.359Z,96.86
2022-11-25T23:29:29.965Z,96.45
2022-11-25T23:31:53.650Z,96.37
2022-11-25T23:34:17.365Z,96.17
2022-11-25T23:36:46.240Z,96.19
2022-11-25T23:39:20.670Z,95.94
2022-11-25T23:41:44.263Z,96.31
2022-11-25T23:44:16.814Z,94.35
2022-11-25T23:46:42.374Z,94.82
2022-11-25T23:49:10.937Z,94.78
2022-11-25T23:51:35.622Z,94.61
2022-11-25T23:54:00.283Z,95.34
2022-11-25T23:56:24.496Z,95.12
2022-11-25T23:58:49.512Z,95.06
